Time;durP1;ratioP1;P1;durP2;ratioP2;P2;SDS_P1;SDS_P2;PMS_P1;PMS_P2;Temp;Humidity;BMP_temperature;BMP_pressure;BME280_temperature;BME280_humidity;BME280_pressure;Samples;Min_cycle;Max_cycle;Signal;HPM_P1;HPM_P2
2022/12/16 00:00:25;;;;;;;65.53;26.38;;;;;;;1.96;100.00;100814.75;5068786;28;20035;-54
2022/12/16 00:02:51;;;;;;;76.13;31.65;;;;;;;2.31;100.00;100812.50;5069347;28;20101;-49
2022/12/16 00:05:18;;;;;;;59.65;24.77;;;;;;;2.29;100.00;100815.28;5071091;28;20029;-50
2022/12/16 00:07:45;;;;;;;70.80;31.60;;;;;;;2.36;100.00;100824.31;5074291;28;20052;-50
2022/12/16 00:10:11;;;;;;;78.70;33.00;;;;;;;2.00;100.00;100824.06;5072058;28;20067;-51
2022/12/16 00:12:36;;;;;;;89.05;35.72;;;;;;;1.70;100.00;100824.03;5075685;28;20312;-49
2022/12/16 00:15:03;;;;;;;71.07;31.33;;;;;;;1.95;100.00;100821.00;5085356;28;20037;-51
2022/12/16 00:17:29;;;;;;;60.88;25.75;;;;;;;1.97;100.00;100825.19;5080100;28;20037;-54
2022/12/16 00:19:54;;;;;;;71.00;29.52;;;;;;;2.04;100.00;100817.53;5080116;28;20036;-49
2022/12/16 00:22:19;;;;;;;71.53;32.30;;;;;;;1.92;100.00;100819.47;5086759;28;20051;-52
2022/12/16 00:24:45;;;;;;;70.30;32.73;;;;;;;1.93;100.00;100822.97;5079890;28;20033;-52
2022/12/16 00:27:10;;;;;;;69.43;31.43;;;;;;;1.70;100.00;100823.22;5078689;28;20029;-55
2022/12/16 00:29:36;;;;;;;58.70;25.35;;;;;;;1.60;100.00;100823.22;5084760;28;20032;-51
2022/12/16 00:32:01;;;;;;;68.90;32.27;;;;;;;1.82;100.00;100831.84;5079582;28;20049;-49
2022/12/16 00:34:28;;;;;;;81.30;31.77;;;;;;;1.85;100.00;100827.13;5084012;28;20029;-51
2022/12/16 00:36:53;;;;;;;71.57;32.87;;;;;;;1.78;100.00;100827.81;5081842;28;20037;-49
2022/12/16 00:39:19;;;;;;;74.10;33.47;;;;;;;1.62;100.00;100838.91;5080487;28;20270;-48
2022/12/16 00:41:46;;;;;;;77.70;33.85;;;;;;;1.73;100.00;100836.13;5063291;28;20032;-49
2022/12/16 00:44:12;;;;;;;;;;;;;;;1.94;100.00;100840.44;5080988;28;20041;-47
2022/12/16 00:46:38;;;;;;;65.47;30.17;;;;;;;2.10;100.00;100838.09;5080433;28;19923;-51
2022/12/16 00:49:04;;;;;;;;;;;;;;;2.01;100.00;100844.19;5079570;28;20040;-48
2022/12/16 00:51:29;;;;;;;66.67;30.87;;;;;;;1.84;100.00;100843.91;5081586;28;19912;-54
2022/12/16 00:53:54;;;;;;;71.83;32.17;;;;;;;2.09;100.00;100840.84;5081227;28;20035;-50
2022/12/16 00:56:20;;;;;;;73.03;31.25;;;;;;;2.21;100.00;100844.19;5078775;28;20048;-49
2022/12/16 00:58:46;;;;;;;62.93;28.50;;;;;;;2.14;100.00;100844.75;5082809;28;20043;-48
2022/12/16 01:01:12;;;;;;;73.68;31.02;;;;;;;1.90;100.00;100846.97;5076271;28;20356;-49
2022/12/16 01:03:37;;;;;;;69.03;30.83;;;;;;;1.96;100.00;100849.91;5082098;28;20036;-52
2022/12/16 01:06:08;;;;;;;69.35;32.05;;;;;;;2.05;100.00;100850.84;5078916;28;20067;-54
2022/12/16 01:08:34;;;;;;;70.68;31.02;;;;;;;2.11;100.00;100849.47;5074992;28;20033;-49
2022/12/16 01:10:59;;;;;;;62.87;28.93;;;;;;;2.17;100.00;100845.44;5072696;28;20037;-51
2022/12/16 01:13:25;;;;;;;67.97;29.50;;;;;;;1.93;100.00;100849.34;5077998;28;20021;-49
2022/12/16 01:15:51;;;;;;;71.07;29.30;;;;;;;2.26;100.00;100855.16;5083523;28;20045;-50
2022/12/16 01:18:17;;;;;;;66.15;30.23;;;;;;;2.21;100.00;100860.00;5077261;28;20055;-47
2022/12/16 01:20:43;;;;;;;72.60;31.73;;;;;;;2.25;100.00;100861.41;5078144;28;20036;-51
2022/12/16 01:23:09;;;;;;;70.57;31.63;;;;;;;2.49;100.00;100865.41;5078123;28;20282;-50
2022/12/16 01:25:34;;;;;;;56.60;24.20;;;;;;;2.46;100.00;100855.97;5078906;28;20040;-49
2022/12/16 01:28:00;;;;;;;66.50;29.48;;;;;;;2.67;100.00;100860.25;5082942;28;20033;-51
2022/12/16 01:30:25;;;;;;;60.30;28.25;;;;;;;2.84;100.00;100866.56;5079358;28;20059;-51
2022/12/16 01:32:50;;;;;;;68.37;28.33;;;;;;;2.80;100.00;100873.13;5078910;28;20043;-48
2022/12/16 01:35:16;;;;;;;53.60;23.87;;;;;;;2.97;100.00;100871.53;5080811;28;20044;-49
2022/12/16 01:37:42;;;;;;;66.47;29.33;;;;;;;2.97;100.00;100880.28;5081666;28;20029;-51
2022/12/16 01:40:16;;;;;;;66.47;29.52;;;;;;;2.88;100.00;100889.09;5074050;28;20037;-48
2022/12/16 01:42:43;;;;;;;66.25;29.88;;;;;;;2.70;100.00;100878.44;5077014;28;20043;-52
2022/12/16 01:45:27;;;;;;;;;;;;;;;2.93;100.00;100888.66;5083764;28;20032;-49
2022/12/16 01:47:56;;;;;;;67.32;29.02;;;;;;;2.90;100.00;100889.78;5076442;28;19912;-50
2022/12/16 01:50:22;;;;;;;64.75;29.88;;;;;;;2.83;100.00;100892.16;5086389;28;20067;-47
2022/12/16 01:52:53;;;;;;;64.55;28.65;;;;;;;2.84;100.00;100896.44;5078258;28;20025;-48
2022/12/16 01:55:27;;;;;;;58.95;28.67;;;;;;;3.05;100.00;100908.63;5078916;28;20127;-48
2022/12/16 01:58:03;;;;;;;61.47;30.17;;;;;;;3.08;100.00;100902.25;5080307;28;20168;-51
2022/12/16 02:00:29;;;;;;;68.70;30.80;;;;;;;3.18;100.00;100902.22;5081007;28;20156;-53
2022/12/16 02:02:56;;;;;;;59.92;26.13;;;;;;;3.19;100.00;100911.78;5079761;28;20036;-51
2022/12/16 02:05:23;;;;;;;67.85;31.10;;;;;;;3.16;100.00;100912.91;5080602;28;20036;-52
2022/12/16 02:08:08;;;;;;;62.95;30.55;;;;;;;2.92;100.00;100916.88;5078587;28;20029;-53
2022/12/16 02:10:42;;;;;;;68.20;29.85;;;;;;;3.10;100.00;100919.59;5077042;28;20105;-49
2022/12/16 02:13:25;;;;;;;61.70;29.13;;;;;;;3.11;100.00;100923.91;5079684;28;20056;-51
2022/12/16 02:16:18;;;;;;;65.65;28.63;;;;;;;3.11;100.00;100925.72;5078882;28;20040;-52
2022/12/16 02:18:44;;;;;;;68.28;29.30;;;;;;;3.37;100.00;100925.91;5083539;28;20049;-48
2022/12/16 02:21:15;;;;;;;58.83;26.97;;;;;;;3.33;100.00;100931.63;5086063;28;20032;-54
2022/12/16 02:24:12;;;;;;;62.72;29.85;;;;;;;3.35;100.00;100921.75;5079614;28;20286;-53
2022/12/16 02:27:04;;;;;;;63.25;29.13;;;;;;;3.41;100.00;100924.66;5084595;28;20062;-51
2022/12/16 02:29:49;;;;;;;66.32;29.05;;;;;;;3.47;100.00;100927.69;5081970;28;20028;-51
2022/12/16 02:32:14;;;;;;;56.97;28.60;;;;;;;3.22;100.00;100932.66;5084726;28;20048;-51
2022/12/16 02:35:02;;;;;;;57.17;27.23;;;;;;;3.40;100.00;100922.97;5082369;28;20044;-53
2022/12/16 02:37:41;;;;;;;;;;;;;;;3.41;100.00;100921.16;5080979;28;20254;-55
2022/12/16 02:40:22;;;;;;;58.75;28.92;;;;;;;3.62;100.00;100925.38;5083074;28;19916;-51
2022/12/16 02:42:54;;;;;;;64.95;27.77;;;;;;;3.73;100.00;100927.81;5078476;28;20033;-51
2022/12/16 02:45:27;;;;;;;60.17;29.23;;;;;;;3.80;100.00;100928.88;5090744;28;20052;-50
2022/12/16 02:47:53;;;;;;;63.88;29.90;;;;;;;3.75;100.00;100919.72;5086437;28;20029;-54
2022/12/16 02:50:39;;;;;;;58.93;28.63;;;;;;;3.68;100.00;100922.13;5081405;28;20044;-51
2022/12/16 02:53:07;;;;;;;62.42;29.80;;;;;;;3.78;100.00;100919.44;5078926;28;20036;-48
2022/12/16 02:55:51;;;;;;;57.65;27.42;;;;;;;3.81;100.00;100927.91;5081677;28;20041;-51
2022/12/16 02:58:29;;;;;;;64.40;28.88;;;;;;;3.83;100.00;100923.28;5084780;28;20039;-51
2022/12/16 03:01:12;;;;;;;62.83;29.88;;;;;;;3.91;100.00;100927.84;5079408;28;20044;-51
2022/12/16 03:03:46;;;;;;;62.22;27.67;;;;;;;3.90;100.00;100934.13;5081960;28;20033;-51
2022/12/16 03:06:16;;;;;;;57.30;28.65;;;;;;;3.97;100.00;100934.38;5080507;28;20036;-49
2022/12/16 03:08:46;;;;;;;62.22;28.25;;;;;;;3.99;100.00;100941.16;5083663;28;20037;-50
2022/12/16 03:11:11;;;;;;;63.15;31.00;;;;;;;4.00;100.00;100939.34;5082064;28;20033;-51
2022/12/16 03:13:45;;;;;;;61.25;29.25;;;;;;;4.01;100.00;100943.66;5084868;28;20035;-52
2022/12/16 03:16:16;;;;;;;52.65;26.63;;;;;;;4.01;100.00;100941.84;5078650;28;20036;-52
2022/12/16 03:18:46;;;;;;;59.83;27.70;;;;;;;4.04;100.00;100953.94;5082121;28;20025;-53
2022/12/16 03:21:13;;;;;;;52.90;24.88;;;;;;;4.09;100.00;100948.22;5083049;28;20043;-50
2022/12/16 03:23:52;;;;;;;56.70;26.42;;;;;;;4.06;100.00;100951.16;5078354;28;20036;-52
2022/12/16 03:26:25;;;;;;;60.92;28.02;;;;;;;4.16;100.00;100954.56;5082616;28;20040;-51
2022/12/16 03:28:57;;;;;;;63.15;26.60;;;;;;;4.21;100.00;100964.72;5078142;28;20029;-49
2022/12/16 03:31:46;;;;;;;55.38;27.45;;;;;;;4.22;100.00;100964.53;5078940;28;20056;-50
2022/12/16 03:34:15;;;;;;;60.60;28.90;;;;;;;4.18;100.00;100965.00;5078099;28;20037;-48
2022/12/16 03:36:47;;;;;;;56.03;26.35;;;;;;;4.20;100.00;100971.00;5080693;28;20096;-54
2022/12/16 03:39:15;;;;;;;53.72;26.80;;;;;;;4.26;100.00;100978.31;5087029;28;20092;-48
2022/12/16 03:41:43;;;;;;;67.45;26.50;;;;;;;4.24;100.00;100975.00;5084338;28;20029;-54
2022/12/16 03:44:10;;;;;;;57.38;26.75;;;;;;;4.27;100.00;100985.28;5083502;28;20096;-52
2022/12/16 03:46:36;;;;;;;54.00;26.20;;;;;;;4.29;100.00;100986.81;5082156;28;20024;-47
2022/12/16 03:49:01;;;;;;;68.80;27.67;;;;;;;4.16;100.00;100992.47;5080210;28;20109;-48
2022/12/16 03:51:27;;;;;;;56.73;27.33;;;;;;;4.21;100.00;100993.84;5081635;28;20029;-50
2022/12/16 03:53:53;;;;;;;65.22;29.02;;;;;;;4.24;100.00;100991.69;5079627;28;20309;-47
2022/12/16 03:56:19;;;;;;;67.63;29.90;;;;;;;4.22;100.00;101000.78;5084212;28;20039;-48
2022/12/16 03:58:45;;;;;;;59.17;27.93;;;;;;;4.16;100.00;100997.75;5077537;28;20036;-51
2022/12/16 04:01:11;;;;;;;68.35;28.27;;;;;;;4.16;100.00;100997.75;5085333;28;20621;-48
2022/12/16 04:03:37;;;;;;;78.18;30.30;;;;;;;4.23;100.00;100991.88;5083507;28;20037;-49
2022/12/16 04:06:03;;;;;;;60.45;28.30;;;;;;;4.16;100.00;101007.50;5081767;28;20033;-48
2022/12/16 04:08:29;;;;;;;60.60;30.02;;;;;;;4.22;100.00;101009.53;5082376;28;20033;-48
2022/12/16 04:24:49;;;;;;;69.38;30.45;;;;;;;4.20;100.00;101021.28;5081127;28;20037;-52
2022/12/16 04:27:23;;;;;;;66.30;31.30;;;;;;;4.19;100.00;101030.22;5084891;28;20035;-54
